Terminal Aerodrome Forecast
Issued by NWS Charleston, WV

Current Version | Previous Version | Text Only | Print | Product List | Glossary Off
Versions: 1 2 3 4 5 6 7 8 9 10 11 12 13 14 15 16 17 18 19 20 21 22 23 24 25

000
FTUS41 KRLX 062328
TAFCRW
TAF
KCRW 062328Z 0700/0724 23007KT P6SM -RA OVC014
     FM070300 27008G15KT P6SM -RA OVC012
     FM070500 28007KT P6SM BKN011
     FM071600 VRB03KT P6SM BKN060=

USA.gov is the U.S. government's official web portal to all federal, state and local government web resources and services.